createdAt,value
2023-04-23T00:02:37.967Z,4.35
2023-04-23T00:05:42.263Z,3.88
2023-04-23T00:08:45.850Z,3.85
2023-04-23T00:11:48.287Z,2.78
2023-04-23T00:14:51.978Z,3.85
2023-04-23T00:17:54.428Z,3.28
2023-04-23T00:20:56.815Z,3.75
2023-04-23T00:23:58.986Z,3.78
2023-04-23T00:27:01.217Z,4.57
2023-04-23T00:30:04.507Z,3.53
2023-04-23T00:33:06.628Z,3.00
2023-04-23T00:36:09.119Z,3.05
2023-04-23T00:39:11.727Z,4.32
2023-04-23T00:42:14.160Z,4.40
2023-04-23T00:45:16.903Z,4.45
2023-04-23T00:48:19.113Z,3.20
2023-04-23T00:51:25.714Z,2.63
2023-04-23T00:54:28.330Z,4.25
2023-04-23T00:57:31.173Z,3.28
2023-04-23T01:00:37.738Z,3.13
2023-04-23T01:03:42.519Z,2.67
2023-04-23T01:06:48.307Z,3.22
2023-04-23T01:09:51.609Z,3.75
2023-04-23T01:12:54.206Z,3.58
2023-04-23T01:15:59.560Z,3.22
2023-04-23T01:19:02.441Z,2.97
2023-04-23T01:22:18.340Z,3.78
2023-04-23T01:25:20.600Z,2.80
2023-04-23T01:28:22.874Z,2.50
2023-04-23T01:31:25.398Z,3.67
2023-04-23T01:34:27.640Z,2.50
2023-04-23T01:37:30.668Z,3.00
2023-04-23T01:40:34.192Z,3.75
2023-04-23T01:43:37.943Z,2.90
2023-04-23T01:46:40.187Z,3.92
2023-04-23T01:49:59.105Z,2.97
2023-04-23T01:53:01.422Z,4.15
2023-04-23T01:56:04.044Z,4.32
2023-04-23T01:59:07.498Z,3.75
2023-04-23T02:02:14.008Z,4.40
2023-04-23T02:05:18.953Z,2.63
2023-04-23T02:08:23.011Z,3.58
2023-04-23T02:11:25.191Z,3.15
2023-04-23T02:14:27.509Z,3.80
2023-04-23T02:17:29.803Z,3.83
2023-04-23T02:20:32.096Z,3.80
2023-04-23T02:23:34.312Z,2.90
2023-04-23T02:26:36.652Z,3.08
2023-04-23T02:29:38.831Z,2.53
2023-04-23T02:32:43.208Z,3.50
2023-04-23T02:35:45.421Z,3.95
2023-04-23T02:38:49.410Z,4.32
2023-04-23T02:41:51.468Z,3.42
2023-04-23T02:44:53.641Z,5.20
2023-04-23T02:47:56.137Z,3.17
2023-04-23T02:50:58.513Z,4.65
2023-04-23T02:54:00.958Z,4.22
2023-04-23T02:57:04.443Z,3.47
2023-04-23T03:00:07.589Z,3.00
2023-04-23T03:03:12.350Z,3.42
2023-04-23T03:06:14.978Z,3.10
2023-04-23T03:09:17.153Z,3.65
2023-04-23T03:12:19.311Z,4.32
2023-04-23T03:15:21.573Z,3.95
2023-04-23T03:18:23.952Z,3.22
2023-04-23T03:21:26.256Z,2.60
2023-04-23T03:24:32.026Z,2.47
2023-04-23T03:27:34.273Z,4.43
2023-04-23T03:30:36.876Z,3.88
2023-04-23T03:33:40.511Z,3.08
2023-04-23T03:36:44.897Z,3.17
2023-04-23T03:39:47.909Z,3.67
2023-04-23T03:42:50.050Z,3.85
2023-04-23T03:45:52.209Z,3.42
2023-04-23T03:48:54.283Z,4.95
2023-04-23T03:51:56.392Z,5.30
2023-04-23T03:54:58.501Z,3.13
2023-04-23T03:58:03.517Z,2.78
2023-04-23T04:01:05.871Z,2.55
2023-04-23T04:04:08.390Z,4.03
2023-04-23T04:07:12.230Z,2.97
2023-04-23T04:10:14.568Z,3.13
2023-04-23T04:13:16.680Z,2.45
2023-04-23T04:16:29.555Z,3.05
2023-04-23T04:19:31.693Z,4.13
2023-04-23T04:22:33.916Z,3.53
2023-04-23T04:25:40.171Z,3.33
2023-04-23T04:28:42.371Z,3.60
2023-04-23T04:31:44.542Z,2.78
2023-04-23T04:34:47.143Z,2.88
2023-04-23T04:37:49.920Z,3.17
2023-04-23T04:40:55.523Z,2.85
2023-04-23T04:43:58.759Z,3.17
2023-04-23T04:47:00.972Z,3.10
2023-04-23T04:50:04.114Z,5.75
2023-04-23T04:53:06.223Z,3.67
2023-04-23T04:56:09.129Z,2.80
2023-04-23T04:59:11.346Z,2.75
2023-04-23T05:02:13.637Z,2.88
2023-04-23T05:05:16.046Z,2.50
2023-04-23T05:08:18.985Z,6.15
2023-04-23T05:11:21.652Z,3.15
2023-04-23T05:14:26.131Z,3.20
2023-04-23T05:17:28.521Z,3.22
2023-04-23T05:20:31.247Z,3.95
2023-04-23T05:23:34.358Z,3.38
2023-04-23T05:26:36.589Z,3.70
2023-04-23T05:29:38.748Z,3.53
2023-04-23T05:32:40.980Z,3.90
2023-04-23T05:35:43.449Z,2.97
2023-04-23T05:38:45.533Z,2.55
2023-04-23T05:41:47.608Z,3.60
2023-04-23T05:44:49.765Z,5.30
2023-04-23T05:47:51.957Z,3.40
2023-04-23T05:50:54.155Z,2.80
2023-04-23T05:53:56.252Z,3.42
2023-04-23T05:56:59.008Z,4.20
2023-04-23T06:00:01.085Z,3.77
2023-04-23T06:03:03.406Z,3.17
2023-04-23T06:06:05.777Z,4.50
2023-04-23T06:09:07.949Z,4.38
2023-04-23T06:12:10.827Z,4.03
2023-04-23T06:15:13.071Z,4.78
2023-04-23T06:18:15.293Z,4.20
2023-04-23T06:21:18.719Z,3.67
2023-04-23T06:24:21.758Z,3.72
2023-04-23T06:27:23.923Z,3.60
2023-04-23T06:30:26.092Z,3.30
2023-04-23T06:33:28.548Z,3.90
2023-04-23T06:36:30.683Z,5.15
2023-04-23T06:39:32.848Z,4.10
2023-04-23T06:42:34.971Z,4.22
2023-04-23T06:45:37.197Z,4.20
2023-04-23T06:48:39.426Z,4.15
2023-04-23T06:51:41.566Z,4.13
2023-04-23T06:54:44.101Z,5.18
2023-04-23T06:57:46.464Z,4.10
2023-04-23T07:00:48.608Z,5.45
2023-04-23T07:03:52.592Z,4.55
2023-04-23T07:06:55.378Z,3.85
2023-04-23T07:09:57.524Z,5.55
2023-04-23T07:12:59.696Z,6.55
2023-04-23T07:16:01.841Z,4.00
2023-04-23T07:19:03.967Z,3.92
2023-04-23T07:22:06.351Z,4.10
2023-04-23T07:25:08.910Z,4.57
2023-04-23T07:28:11.077Z,3.92
2023-04-23T07:31:13.346Z,4.28
2023-04-23T07:34:16.160Z,4.78
2023-04-23T07:37:18.226Z,3.08
2023-04-23T07:40:22.628Z,3.90
2023-04-23T07:43:24.807Z,4.07
2023-04-23T07:46:28.504Z,2.55
2023-04-23T07:49:31.314Z,3.40
2023-04-23T07:52:33.542Z,3.50
2023-04-23T07:55:35.808Z,3.53
2023-04-23T07:58:38.480Z,2.80
2023-04-23T08:01:42.252Z,3.40
2023-04-23T08:07:46.545Z,2.60
2023-04-23T08:10:48.708Z,2.80
2023-04-23T08:13:50.868Z,2.42
2023-04-23T08:16:53.034Z,2.47
2023-04-23T08:19:55.638Z,2.17
2023-04-23T08:22:57.958Z,2.07
2023-04-23T08:26:00.130Z,2.10
2023-04-23T08:29:03.213Z,2.80
2023-04-23T08:32:05.867Z,2.78
2023-04-23T08:35:09.458Z,2.63
2023-04-23T08:38:11.607Z,2.97
2023-04-23T08:41:15.612Z,3.20
2023-04-23T08:44:24.286Z,2.80
2023-04-23T08:47:28.981Z,2.50
2023-04-23T08:50:31.403Z,2.22
2023-04-23T08:53:33.710Z,2.47
2023-04-23T08:56:37.339Z,2.85
2023-04-23T08:59:41.066Z,2.53
2023-04-23T09:02:46.135Z,2.95
2023-04-23T09:05:48.942Z,1.95
2023-04-23T09:08:53.258Z,2.80
2023-04-23T09:11:57.111Z,1.90
2023-04-23T09:14:59.785Z,2.20
2023-04-23T09:18:02.723Z,2.65
2023-04-23T09:21:05.309Z,1.98
2023-04-23T09:24:11.805Z,2.08
2023-04-23T09:27:13.986Z,1.80
2023-04-23T09:30:17.007Z,1.48
2023-04-23T09:33:19.159Z,2.85
2023-04-23T09:36:26.426Z,1.73
2023-04-23T09:39:29.175Z,2.00
2023-04-23T09:42:33.115Z,1.75
2023-04-23T09:45:38.266Z,2.13
2023-04-23T09:48:44.025Z,3.65
2023-04-23T09:51:48.308Z,4.55
2023-04-23T09:54:50.976Z,5.18
2023-04-23T09:57:53.682Z,4.20
2023-04-23T10:01:08.242Z,4.65
2023-04-23T10:04:13.338Z,4.85
2023-04-23T10:07:20.233Z,4.57
2023-04-23T10:10:22.852Z,4.20
2023-04-23T10:13:25.912Z,4.40
2023-04-23T10:16:33.009Z,5.45
2023-04-23T10:19:45.277Z,3.55
2023-04-23T10:22:48.022Z,4.70
2023-04-23T10:25:55.207Z,4.60
2023-04-23T10:28:58.259Z,5.22
2023-04-23T10:32:02.465Z,4.82
2023-04-23T10:35:05.362Z,4.15
2023-04-23T10:38:08.051Z,4.40
2023-04-23T10:41:11.040Z,4.25
2023-04-23T10:44:16.019Z,4.57
2023-04-23T10:47:20.773Z,5.18
2023-04-23T10:50:25.417Z,3.58
2023-04-23T10:53:31.571Z,4.45
2023-04-23T10:56:33.915Z,4.00
2023-04-23T10:59:40.421Z,4.75
2023-04-23T11:02:46.360Z,4.72
2023-04-23T11:05:49.305Z,3.55
2023-04-23T11:08:56.921Z,3.97
2023-04-23T11:12:03.344Z,4.50
2023-04-23T11:15:16.846Z,2.75
2023-04-23T11:18:19.096Z,4.00
2023-04-23T11:21:21.264Z,3.78
2023-04-23T11:24:24.872Z,4.53
2023-04-23T11:27:27.662Z,5.25
2023-04-23T11:30:30.926Z,3.75
2023-04-23T11:33:33.675Z,3.65
2023-04-23T11:36:36.419Z,2.35
2023-04-23T11:39:40.908Z,2.88
2023-04-23T11:42:46.696Z,3.50
2023-04-23T11:45:49.465Z,3.15
2023-04-23T11:48:51.866Z,3.58
2023-04-23T11:51:54.229Z,3.50
2023-04-23T11:54:56.412Z,4.10
2023-04-23T11:57:58.513Z,3.42
2023-04-23T12:01:01.537Z,5.05
2023-04-23T12:04:11.562Z,5.15
2023-04-23T12:07:25.799Z,4.38
2023-04-23T12:10:28.686Z,4.00
2023-04-23T12:13:33.974Z,4.85
2023-04-23T12:16:47.267Z,3.80
2023-04-23T12:19:50.815Z,3.70
2023-04-23T12:22:53.118Z,4.55
2023-04-23T12:25:55.585Z,5.78
2023-04-23T12:29:00.402Z,4.10
2023-04-23T12:32:02.939Z,4.13
2023-04-23T12:35:06.704Z,4.50
2023-04-23T12:38:22.734Z,3.63
2023-04-23T12:41:24.907Z,4.82
2023-04-23T12:44:29.737Z,4.20
2023-04-23T12:47:31.926Z,4.68
2023-04-23T12:50:34.173Z,4.93
2023-04-23T12:53:36.273Z,3.55
2023-04-23T12:56:38.389Z,3.72
2023-04-23T12:59:40.886Z,4.78
2023-04-23T13:02:43.675Z,2.80
2023-04-23T13:05:46.008Z,3.10
2023-04-23T13:08:48.061Z,4.25
2023-04-23T13:11:50.806Z,3.92
2023-04-23T13:14:52.976Z,3.40
2023-04-23T13:17:55.099Z,3.67
2023-04-23T13:20:57.850Z,4.00
2023-04-23T13:24:00.019Z,2.85
2023-04-23T13:27:02.268Z,2.65
2023-04-23T13:30:04.891Z,3.55
2023-04-23T13:33:07.012Z,3.35
2023-04-23T13:36:09.723Z,3.35
2023-04-23T13:39:14.324Z,3.00
2023-04-23T13:42:16.552Z,3.30
2023-04-23T13:45:18.668Z,2.25
2023-04-23T13:48:21.134Z,1.17
2023-04-23T13:51:34.847Z,1.67
2023-04-23T13:54:39.442Z,1.10
2023-04-23T13:57:41.508Z,2.08
2023-04-23T14:00:44.031Z,2.00
2023-04-23T14:03:47.469Z,1.55
2023-04-23T14:06:49.784Z,2.13
2023-04-23T14:09:53.022Z,1.30
2023-04-23T14:12:56.130Z,1.63
2023-04-23T14:15:59.654Z,2.15
2023-04-23T14:19:03.737Z,1.42
2023-04-23T14:22:06.357Z,1.63
2023-04-23T14:25:16.076Z,1.67
2023-04-23T14:28:35.170Z,1.10
2023-04-23T14:31:38.851Z,1.60
2023-04-23T14:34:41.184Z,1.15
2023-04-23T14:37:45.549Z,1.70
2023-04-23T14:40:47.678Z,1.40
2023-04-23T14:43:49.827Z,1.17
2023-04-23T14:46:52.125Z,1.98
2023-04-23T14:49:54.519Z,1.60
2023-04-23T14:52:57.729Z,1.23
2023-04-23T14:55:59.852Z,1.43
2023-04-23T14:59:02.544Z,2.20
2023-04-23T15:02:04.957Z,1.33
2023-04-23T15:05:10.245Z,1.77
2023-04-23T15:08:13.540Z,1.50
2023-04-23T15:11:15.760Z,1.60
2023-04-23T15:14:32.733Z,1.10
2023-04-23T15:17:34.913Z,1.52
2023-04-23T15:20:37.534Z,1.42
2023-04-23T15:23:41.494Z,2.92
2023-04-23T15:26:46.077Z,1.83
2023-04-23T15:29:49.659Z,1.67
2023-04-23T15:32:52.423Z,1.45
2023-04-23T15:35:57.644Z,2.40
2023-04-23T15:39:01.783Z,1.92
2023-04-23T15:42:04.666Z,1.80
2023-04-23T15:45:09.161Z,2.47
2023-04-23T15:48:11.427Z,1.48
2023-04-23T15:51:13.726Z,3.25
2023-04-23T15:54:15.912Z,2.47
2023-04-23T15:57:18.034Z,2.83
2023-04-23T16:00:20.217Z,1.88
2023-04-23T16:03:22.563Z,2.08
2023-04-23T16:06:24.834Z,1.75
2023-04-23T16:09:27.177Z,2.47
2023-04-23T16:12:29.417Z,2.40
2023-04-23T16:15:31.542Z,1.85
2023-04-23T16:18:33.830Z,2.40
2023-04-23T16:21:36.044Z,2.35
2023-04-23T16:24:38.214Z,1.85
2023-04-23T16:27:40.652Z,2.28
2023-04-23T16:30:43.052Z,1.70
2023-04-23T16:33:45.142Z,1.20
2023-04-23T16:36:47.249Z,1.70
2023-04-23T16:39:49.468Z,1.23
2023-04-23T16:42:51.565Z,2.13
2023-04-23T16:45:53.767Z,0.95
2023-04-23T16:48:56.211Z,1.58
2023-04-23T16:51:58.383Z,1.50
2023-04-23T16:55:01.349Z,1.50
2023-04-23T16:58:04.217Z,1.85
2023-04-23T17:01:06.386Z,1.75
2023-04-23T17:04:08.717Z,1.33
2023-04-23T17:07:11.086Z,2.15
2023-04-23T17:10:15.527Z,2.28
2023-04-23T17:13:17.699Z,2.33
2023-04-23T17:16:20.128Z,1.25
2023-04-23T17:19:22.328Z,2.05
2023-04-23T17:22:24.508Z,2.47
2023-04-23T17:25:26.626Z,3.30
2023-04-23T17:28:28.971Z,3.28
2023-04-23T17:31:31.264Z,2.38
2023-04-23T17:34:34.736Z,2.85
2023-04-23T17:37:36.967Z,4.18
2023-04-23T17:40:39.584Z,3.97
2023-04-23T17:43:41.772Z,2.60
2023-04-23T17:46:43.923Z,2.90
2023-04-23T17:49:46.173Z,3.50
2023-04-23T17:52:48.456Z,2.95
2023-04-23T17:55:50.643Z,3.00
2023-04-23T17:58:52.900Z,2.33
2023-04-23T18:01:55.090Z,5.22
2023-04-23T18:04:59.462Z,4.13
2023-04-23T18:08:02.131Z,3.30
2023-04-23T18:11:06.864Z,3.33
2023-04-23T18:14:09.104Z,2.78
2023-04-23T18:17:11.376Z,3.63
2023-04-23T18:20:14.370Z,2.28
2023-04-23T18:23:16.558Z,2.53
2023-04-23T18:26:19.868Z,2.42
2023-04-23T18:29:22.305Z,1.80
2023-04-23T18:32:34.063Z,2.67
2023-04-23T18:35:37.031Z,1.73
2023-04-23T18:38:45.806Z,2.60
2023-04-23T18:41:51.047Z,2.25
2023-04-23T18:44:54.038Z,2.70
2023-04-23T18:48:23.416Z,2.42
2023-04-23T18:51:43.676Z,2.25
2023-04-23T18:54:45.961Z,2.13
2023-04-23T18:57:48.180Z,2.65
2023-04-23T19:00:50.350Z,3.42
2023-04-23T19:03:53.163Z,2.40
2023-04-23T19:06:55.440Z,2.70
2023-04-23T19:09:57.708Z,3.05
2023-04-23T19:12:59.806Z,2.22
2023-04-23T19:16:02.109Z,2.60
2023-04-23T19:19:04.318Z,2.78
2023-04-23T19:22:06.460Z,3.33
2023-04-23T19:25:09.495Z,2.70
2023-04-23T19:28:11.693Z,3.13
2023-04-23T19:31:13.897Z,4.15
2023-04-23T19:34:19.192Z,2.55
2023-04-23T19:40:23.706Z,2.67
2023-04-23T19:43:25.967Z,3.30
2023-04-23T19:46:28.181Z,3.30
2023-04-23T19:49:31.816Z,2.70
2023-04-23T19:52:34.913Z,3.17
2023-04-23T19:55:37.657Z,6.30
2023-04-23T19:58:40.666Z,3.33
2023-04-23T20:01:42.976Z,3.17
2023-04-23T20:04:45.907Z,4.05
2023-04-23T20:07:48.839Z,4.22
2023-04-23T20:10:50.962Z,3.13
2023-04-23T20:13:53.108Z,3.05
2023-04-23T20:16:55.445Z,3.53
2023-04-23T20:20:02.119Z,3.45
2023-04-23T20:23:04.223Z,3.45
2023-04-23T20:26:07.772Z,2.80
2023-04-23T20:29:10.095Z,2.92
2023-04-23T20:32:12.339Z,2.45
2023-04-23T20:35:14.493Z,4.15
2023-04-23T20:38:19.583Z,3.17
2023-04-23T20:41:23.143Z,3.33
2023-04-23T20:44:27.736Z,3.65
2023-04-23T20:47:29.977Z,3.38
2023-04-23T20:50:32.178Z,3.58
2023-04-23T20:53:34.277Z,3.95
2023-04-23T20:56:36.852Z,3.80
2023-04-23T20:59:38.948Z,3.58
2023-04-23T21:02:41.686Z,4.97
2023-04-23T21:05:44.822Z,2.70
2023-04-23T21:08:47.703Z,3.10
2023-04-23T21:11:51.238Z,4.28
2023-04-23T21:14:54.612Z,4.13
2023-04-23T21:17:56.733Z,3.63
2023-04-23T21:20:58.934Z,2.65
2023-04-23T21:24:02.103Z,3.70
2023-04-23T21:27:04.304Z,3.33
2023-04-23T21:30:12.360Z,3.60
2023-04-23T21:33:16.243Z,3.38
2023-04-23T21:36:18.348Z,3.95
2023-04-23T21:39:20.556Z,3.40
2023-04-23T21:42:22.700Z,5.63
2023-04-23T21:45:24.910Z,3.92
2023-04-23T21:48:28.240Z,3.88
2023-04-23T21:51:30.482Z,2.60
2023-04-23T21:54:33.544Z,3.10
2023-04-23T21:57:35.841Z,5.75
2023-04-23T22:00:38.487Z,3.33
2023-04-23T22:03:46.940Z,3.00
2023-04-23T22:06:49.373Z,3.38
2023-04-23T22:09:51.589Z,3.92
2023-04-23T22:12:53.798Z,3.08
2023-04-23T22:15:57.514Z,4.75
2023-04-23T22:19:02.655Z,3.92
2023-04-23T22:22:04.911Z,3.03
2023-04-23T22:25:08.497Z,2.70
2023-04-23T22:28:11.023Z,4.50
2023-04-23T22:31:13.212Z,3.55
2023-04-23T22:34:15.660Z,2.78
2023-04-23T22:37:17.854Z,4.10
2023-04-23T22:40:20.141Z,2.90
2023-04-23T22:43:22.259Z,2.78
2023-04-23T22:46:24.487Z,3.03
2023-04-23T22:49:26.625Z,3.67
2023-04-23T22:52:28.795Z,3.22
2023-04-23T22:55:31.264Z,4.20
2023-04-23T22:58:33.948Z,3.20
2023-04-23T23:01:36.059Z,3.03
2023-04-23T23:04:39.196Z,3.15
2023-04-23T23:07:41.610Z,3.75
2023-04-23T23:10:43.787Z,3.53
2023-04-23T23:13:46.033Z,3.22
2023-04-23T23:16:48.216Z,4.72
2023-04-23T23:19:50.423Z,3.90
2023-04-23T23:22:52.705Z,6.68
2023-04-23T23:25:55.256Z,4.22
2023-04-23T23:28:57.399Z,3.90
2023-04-23T23:32:00.124Z,4.00
2023-04-23T23:35:03.002Z,4.75
2023-04-23T23:38:05.400Z,3.08
2023-04-23T23:41:07.542Z,3.28
2023-04-23T23:44:09.631Z,3.78
2023-04-23T23:47:11.916Z,3.17
2023-04-23T23:50:14.010Z,4.07
2023-04-23T23:53:16.223Z,3.72
2023-04-23T23:56:18.338Z,3.75
2023-04-23T23:59:20.575Z,4.05
